createdAt,value
2023-03-05T00:00:56.929Z,951.97
2023-03-05T00:15:59.148Z,952.01
2023-03-05T00:31:01.859Z,952.12
2023-03-05T00:46:04.294Z,952.15
2023-03-05T01:01:06.560Z,952.12
2023-03-05T01:16:08.886Z,952.3
2023-03-05T01:31:11.432Z,952.29
2023-03-05T01:46:13.838Z,952.44
2023-03-05T02:01:16.467Z,952.57
2023-03-05T02:16:18.793Z,952.71
2023-03-05T02:31:21.229Z,952.8
2023-03-05T02:46:23.506Z,952.85
2023-03-05T03:01:25.794Z,953.05
2023-03-05T03:16:28.134Z,953.12
2023-03-05T03:31:30.376Z,953.1
2023-03-05T03:46:32.804Z,953.17
2023-03-05T04:01:35.062Z,953.26
2023-03-05T04:16:37.419Z,953.31
2023-03-05T04:31:39.705Z,953.38
2023-03-05T04:46:41.933Z,953.63
2023-03-05T05:01:44.483Z,953.68
2023-03-05T05:16:46.791Z,953.77
2023-03-05T05:31:49.029Z,953.84
2023-03-05T05:46:51.300Z,954.06
2023-03-05T06:01:53.610Z,954.11
2023-03-05T06:16:55.993Z,954.2
2023-03-05T06:31:58.336Z,954.33
2023-03-05T06:47:00.573Z,954.39
2023-03-05T07:02:02.885Z,954.53
2023-03-05T07:17:05.329Z,954.58
2023-03-05T07:32:07.663Z,954.77
2023-03-05T07:47:10.051Z,954.84
2023-03-05T08:02:12.223Z,954.94
2023-03-05T08:17:14.433Z,955.01
2023-03-05T08:32:16.754Z,955.21
2023-03-05T08:47:18.994Z,955.3
2023-03-05T09:02:21.394Z,955.43
2023-03-05T09:17:23.677Z,955.64
2023-03-05T09:32:26.063Z,955.71
2023-03-05T09:47:28.234Z,955.79
2023-03-05T10:02:30.437Z,955.87
2023-03-05T10:17:32.651Z,955.85
2023-03-05T10:32:34.907Z,955.97
2023-03-05T10:47:37.291Z,955.83
2023-03-05T11:02:39.592Z,956.05
2023-03-05T11:17:41.988Z,956.13
2023-03-05T11:32:44.232Z,956.26
2023-03-05T11:47:46.479Z,956.36
2023-03-05T12:02:48.913Z,956.56
2023-03-05T12:17:51.229Z,956.6
2023-03-05T12:32:53.547Z,956.6
2023-03-05T12:47:55.815Z,956.6
2023-03-05T13:02:57.978Z,956.63
2023-03-05T13:18:00.220Z,956.82
2023-03-05T13:33:02.502Z,956.93
2023-03-05T13:48:04.754Z,956.92
2023-03-05T14:03:07.200Z,957.05
2023-03-05T14:18:09.547Z,957.15
2023-03-05T14:33:11.784Z,957.26
2023-03-05T14:48:14.095Z,957.34
2023-03-05T15:03:16.309Z,957.4
2023-03-05T15:18:18.549Z,957.59
2023-03-05T15:33:20.830Z,957.64
2023-03-05T15:48:23.012Z,957.79
2023-03-05T16:03:25.395Z,957.92
2023-03-05T16:18:27.655Z,958
2023-03-05T16:33:30.010Z,958.18
2023-03-05T16:48:32.352Z,958.19
2023-03-05T17:03:34.598Z,958.22
2023-03-05T17:18:36.849Z,958.28
2023-03-05T17:33:39.294Z,958.29
2023-03-05T17:48:41.700Z,958.35
2023-03-05T18:03:43.963Z,958.37
2023-03-05T18:18:46.211Z,958.39
2023-03-05T18:33:48.510Z,958.41
2023-03-05T18:48:50.985Z,958.52
2023-03-05T19:03:53.229Z,958.65
2023-03-05T19:18:55.477Z,958.74
2023-03-05T19:33:57.805Z,958.77
2023-03-05T19:49:00.019Z,958.79
2023-03-05T20:04:02.349Z,958.84
2023-03-05T20:19:04.621Z,958.92
2023-03-05T20:34:06.859Z,959.08
2023-03-05T20:49:09.306Z,959.15
2023-03-05T21:04:11.544Z,959.23
2023-03-05T21:19:13.835Z,959.27
2023-03-05T21:34:16.225Z,959.45
2023-03-05T21:49:18.495Z,959.55
2023-03-05T22:04:20.673Z,959.66
2023-03-05T22:19:22.934Z,959.8
2023-03-05T22:34:25.163Z,960
2023-03-05T22:49:27.672Z,960.14
2023-03-05T23:04:29.952Z,960.25
2023-03-05T23:19:32.365Z,960.4
2023-03-05T23:34:34.642Z,960.51
2023-03-05T23:49:36.900Z,960.6
